sensor_id;sensor_type;location;lat;lon;timestamp;pressure;altitude;pressure_sealevel;temperature;humidity
70200;BME280;57587;55.688;37.600;2023-01-26T00:01:18;100171.00;;;-0.96;63.39
70200;BME280;57587;55.688;37.600;2023-01-26T00:03:46;100154.13;;;-1.06;63.58
70200;BME280;57587;55.688;37.600;2023-01-26T00:06:15;100169.88;;;-1.06;64.12
70200;BME280;57587;55.688;37.600;2023-01-26T00:08:47;100168.84;;;-1.03;63.63
70200;BME280;57587;55.688;37.600;2023-01-26T00:11:19;100165.94;;;-0.99;64.06
70200;BME280;57587;55.688;37.600;2023-01-26T00:13:49;100166.66;;;-0.82;63.72
70200;BME280;57587;55.688;37.600;2023-01-26T00:16:16;100161.88;;;-0.90;63.75
70200;BME280;57587;55.688;37.600;2023-01-26T00:18:44;100143.59;;;-0.91;63.43
70200;BME280;57587;55.688;37.600;2023-01-26T00:21:17;100146.41;;;-0.95;63.89
70200;BME280;57587;55.688;37.600;2023-01-26T00:23:46;100157.75;;;-0.94;63.67
70200;BME280;57587;55.688;37.600;2023-01-26T00:26:15;100160.13;;;-0.89;63.85
70200;BME280;57587;55.688;37.600;2023-01-26T00:28:43;100159.81;;;-0.99;63.53
70200;BME280;57587;55.688;37.600;2023-01-26T00:31:12;100145.13;;;-1.02;63.98
70200;BME280;57587;55.688;37.600;2023-01-26T00:33:40;100153.91;;;-0.88;63.61
70200;BME280;57587;55.688;37.600;2023-01-26T00:36:09;100159.88;;;-0.72;63.59
70200;BME280;57587;55.688;37.600;2023-01-26T00:38:37;100148.44;;;-0.71;63.04
70200;BME280;57587;55.688;37.600;2023-01-26T00:41:04;100149.88;;;-0.80;63.29
70200;BME280;57587;55.688;37.600;2023-01-26T00:43:32;100152.44;;;-0.65;63.26
70200;BME280;57587;55.688;37.600;2023-01-26T00:45:59;100164.06;;;-0.55;62.82
70200;BME280;57587;55.688;37.600;2023-01-26T00:48:26;100159.59;;;-0.67;63.10
70200;BME280;57587;55.688;37.600;2023-01-26T00:50:53;100157.94;;;-0.83;63.03
70200;BME280;57587;55.688;37.600;2023-01-26T00:53:20;100152.19;;;-0.75;62.92
70200;BME280;57587;55.688;37.600;2023-01-26T00:55:47;100152.84;;;-0.72;62.95
70200;BME280;57587;55.688;37.600;2023-01-26T00:58:14;100148.97;;;-0.66;62.43
70200;BME280;57587;55.688;37.600;2023-01-26T01:00:41;100145.97;;;-0.60;62.28
70200;BME280;57587;55.688;37.600;2023-01-26T01:03:09;100142.22;;;-0.56;62.43
70200;BME280;57587;55.688;37.600;2023-01-26T01:05:36;100144.28;;;-0.61;62.13
70200;BME280;57587;55.688;37.600;2023-01-26T01:08:03;100143.25;;;-0.58;62.22
70200;BME280;57587;55.688;37.600;2023-01-26T01:10:33;100141.69;;;-0.48;62.29
70200;BME280;57587;55.688;37.600;2023-01-26T01:13:00;100146.84;;;-0.47;61.83
70200;BME280;57587;55.688;37.600;2023-01-26T01:15:27;100145.91;;;-0.45;61.84
70200;BME280;57587;55.688;37.600;2023-01-26T01:17:54;100129.06;;;-0.56;61.80
70200;BME280;57587;55.688;37.600;2023-01-26T01:20:21;100144.31;;;-0.48;61.29
70200;BME280;57587;55.688;37.600;2023-01-26T01:22:50;100131.69;;;-0.56;61.88
70200;BME280;57587;55.688;37.600;2023-01-26T01:25:17;100120.97;;;-0.53;61.91
70200;BME280;57587;55.688;37.600;2023-01-26T01:27:44;100121.50;;;-0.48;61.48
70200;BME280;57587;55.688;37.600;2023-01-26T01:30:12;100116.84;;;-0.57;61.91
70200;BME280;57587;55.688;37.600;2023-01-26T01:32:40;100139.41;;;-0.67;61.91
70200;BME280;57587;55.688;37.600;2023-01-26T01:35:07;100137.63;;;-0.66;62.20
70200;BME280;57587;55.688;37.600;2023-01-26T01:37:34;100132.34;;;-0.52;61.84
70200;BME280;57587;55.688;37.600;2023-01-26T01:40:02;100137.00;;;-0.43;61.28
70200;BME280;57587;55.688;37.600;2023-01-26T01:42:32;100131.25;;;-0.50;60.98
70200;BME280;57587;55.688;37.600;2023-01-26T01:45:36;100123.53;;;-0.38;60.96
70200;BME280;57587;55.688;37.600;2023-01-26T01:48:12;100122.78;;;-0.40;61.40
70200;BME280;57587;55.688;37.600;2023-01-26T01:50:41;100126.63;;;-0.59;61.67
70200;BME280;57587;55.688;37.600;2023-01-26T01:53:13;100127.31;;;-0.42;61.16
70200;BME280;57587;55.688;37.600;2023-01-26T01:55:44;100125.47;;;-0.28;60.91
70200;BME280;57587;55.688;37.600;2023-01-26T01:58:13;100113.66;;;-0.35;60.63
70200;BME280;57587;55.688;37.600;2023-01-26T02:00:40;100123.53;;;-0.38;60.91
70200;BME280;57587;55.688;37.600;2023-01-26T02:03:09;100119.94;;;-0.37;61.05
70200;BME280;57587;55.688;37.600;2023-01-26T02:08:28;100123.88;;;-0.30;61.14
70200;BME280;57587;55.688;37.600;2023-01-26T02:10:58;100133.25;;;-0.26;60.67
70200;BME280;57587;55.688;37.600;2023-01-26T02:13:28;100129.25;;;-0.19;60.65
70200;BME280;57587;55.688;37.600;2023-01-26T02:15:58;100125.59;;;-0.16;60.62
70200;BME280;57587;55.688;37.600;2023-01-26T02:18:26;100116.44;;;-0.11;60.19
70200;BME280;57587;55.688;37.600;2023-01-26T02:21:06;100118.75;;;-0.19;60.49
70200;BME280;57587;55.688;37.600;2023-01-26T02:26:15;100113.69;;;-0.22;60.35
70200;BME280;57587;55.688;37.600;2023-01-26T02:28:45;100104.88;;;-0.21;60.49
70200;BME280;57587;55.688;37.600;2023-01-26T02:31:13;100099.19;;;-0.28;60.45
70200;BME280;57587;55.688;37.600;2023-01-26T02:33:41;100092.84;;;-0.25;60.79
70200;BME280;57587;55.688;37.600;2023-01-26T02:36:24;100103.56;;;-0.28;60.33
70200;BME280;57587;55.688;37.600;2023-01-26T02:41:38;100093.81;;;-0.26;61.04
70200;BME280;57587;55.688;37.600;2023-01-26T02:44:25;100089.06;;;-0.34;61.21
70200;BME280;57587;55.688;37.600;2023-01-26T02:46:53;100085.47;;;-0.33;61.19
70200;BME280;57587;55.688;37.600;2023-01-26T02:49:20;100093.22;;;-0.44;61.55
70200;BME280;57587;55.688;37.600;2023-01-26T02:52:06;100081.31;;;-0.50;61.93
70200;BME280;57587;55.688;37.600;2023-01-26T02:54:34;100091.34;;;-0.42;61.52
70200;BME280;57587;55.688;37.600;2023-01-26T02:57:20;100079.16;;;-0.43;61.62
70200;BME280;57587;55.688;37.600;2023-01-26T02:59:47;100073.72;;;-0.27;60.73
70200;BME280;57587;55.688;37.600;2023-01-26T03:02:14;100079.38;;;-0.33;61.24
70200;BME280;57587;55.688;37.600;2023-01-26T03:04:41;100081.59;;;-0.40;61.64
70200;BME280;57587;55.688;37.600;2023-01-26T03:07:10;100077.59;;;-0.33;61.94
70200;BME280;57587;55.688;37.600;2023-01-26T03:09:37;100073.72;;;-0.27;61.30
70200;BME280;57587;55.688;37.600;2023-01-26T03:12:07;100072.41;;;-0.34;61.71
70200;BME280;57587;55.688;37.600;2023-01-26T03:14:34;100075.66;;;-0.43;61.86
70200;BME280;57587;55.688;37.600;2023-01-26T03:17:01;100083.06;;;-0.63;62.67
70200;BME280;57587;55.688;37.600;2023-01-26T03:19:28;100080.06;;;-0.57;62.24
70200;BME280;57587;55.688;37.600;2023-01-26T03:22:14;100070.28;;;-0.55;61.80
70200;BME280;57587;55.688;37.600;2023-01-26T03:25:00;100059.97;;;-0.58;61.92
70200;BME280;57587;55.688;37.600;2023-01-26T03:27:48;100063.66;;;-0.48;61.65
70200;BME280;57587;55.688;37.600;2023-01-26T03:30:17;100062.31;;;-0.40;61.74
70200;BME280;57587;55.688;37.600;2023-01-26T03:32:47;100072.41;;;-0.47;61.89
70200;BME280;57587;55.688;37.600;2023-01-26T03:35:15;100063.63;;;-0.33;61.24
70200;BME280;57587;55.688;37.600;2023-01-26T03:37:49;100065.50;;;-0.35;61.46
70200;BME280;57587;55.688;37.600;2023-01-26T03:40:43;100060.22;;;-0.35;61.23
70200;BME280;57587;55.688;37.600;2023-01-26T03:43:43;100069.47;;;-0.42;61.50
70200;BME280;57587;55.688;37.600;2023-01-26T03:46:29;100069.78;;;-0.47;61.77
70200;BME280;57587;55.688;37.600;2023-01-26T03:49:16;100065.66;;;-0.51;61.75
70200;BME280;57587;55.688;37.600;2023-01-26T03:52:05;100068.50;;;-0.81;62.28
70200;BME280;57587;55.688;37.600;2023-01-26T03:54:51;100073.28;;;-0.74;62.21
70200;BME280;57587;55.688;37.600;2023-01-26T03:57:38;100076.22;;;-0.65;62.36
70200;BME280;57587;55.688;37.600;2023-01-26T04:00:05;100074.16;;;-0.60;62.22
70200;BME280;57587;55.688;37.600;2023-01-26T04:02:38;100073.41;;;-0.62;62.05
70200;BME280;57587;55.688;37.600;2023-01-26T04:05:23;100072.97;;;-0.69;62.05
70200;BME280;57587;55.688;37.600;2023-01-26T04:08:09;100071.72;;;-0.63;61.83
70200;BME280;57587;55.688;37.600;2023-01-26T04:10:55;100071.56;;;-0.75;62.01
70200;BME280;57587;55.688;37.600;2023-01-26T04:13:23;100074.66;;;-0.68;62.26
70200;BME280;57587;55.688;37.600;2023-01-26T04:16:17;100071.28;;;-0.70;62.31
70200;BME280;57587;55.688;37.600;2023-01-26T04:19:02;100073.88;;;-0.56;62.07
70200;BME280;57587;55.688;37.600;2023-01-26T04:21:48;100074.19;;;-0.48;61.39
70200;BME280;57587;55.688;37.600;2023-01-26T04:24:17;100067.56;;;-0.40;61.45
70200;BME280;57587;55.688;37.600;2023-01-26T04:26:52;100066.75;;;-0.28;61.18
70200;BME280;57587;55.688;37.600;2023-01-26T04:29:23;100064.03;;;-0.39;61.41
70200;BME280;57587;55.688;37.600;2023-01-26T04:31:50;100065.41;;;-0.34;60.99
70200;BME280;57587;55.688;37.600;2023-01-26T04:34:19;100071.50;;;-0.33;60.99
70200;BME280;57587;55.688;37.600;2023-01-26T04:36:48;100070.13;;;-0.26;61.47
70200;BME280;57587;55.688;37.600;2023-01-26T04:39:17;100065.31;;;-0.19;60.29
70200;BME280;57587;55.688;37.600;2023-01-26T04:41:48;100066.69;;;-0.14;60.33
70200;BME280;57587;55.688;37.600;2023-01-26T04:44:16;100067.00;;;-0.18;60.43
70200;BME280;57587;55.688;37.600;2023-01-26T04:46:43;100056.16;;;-0.27;60.16
70200;BME280;57587;55.688;37.600;2023-01-26T04:49:13;100062.03;;;-0.23;59.98
70200;BME280;57587;55.688;37.600;2023-01-26T04:51:40;100069.31;;;-0.14;59.99
70200;BME280;57587;55.688;37.600;2023-01-26T04:54:07;100073.09;;;-0.18;59.97
70200;BME280;57587;55.688;37.600;2023-01-26T04:56:38;100073.53;;;-0.11;60.16
70200;BME280;57587;55.688;37.600;2023-01-26T04:59:06;100075.63;;;-0.04;60.08
70200;BME280;57587;55.688;37.600;2023-01-26T05:01:38;100073.75;;;-0.14;59.77
70200;BME280;57587;55.688;37.600;2023-01-26T05:04:07;100064.81;;;-0.12;59.85
70200;BME280;57587;55.688;37.600;2023-01-26T05:06:37;100054.69;;;-0.31;59.84
70200;BME280;57587;55.688;37.600;2023-01-26T05:09:05;100059.28;;;-0.34;60.78
70200;BME280;57587;55.688;37.600;2023-01-26T05:11:34;100062.97;;;-0.37;60.44
70200;BME280;57587;55.688;37.600;2023-01-26T05:14:20;100064.84;;;-0.39;60.57
70200;BME280;57587;55.688;37.600;2023-01-26T05:17:10;100064.66;;;-0.36;60.65
70200;BME280;57587;55.688;37.600;2023-01-26T05:19:53;100049.31;;;-0.29;60.06
70200;BME280;57587;55.688;37.600;2023-01-26T05:22:39;100055.59;;;-0.32;60.39
70200;BME280;57587;55.688;37.600;2023-01-26T05:25:32;100038.78;;;-0.29;60.30
70200;BME280;57587;55.688;37.600;2023-01-26T05:28:03;100053.53;;;-0.27;60.52
70200;BME280;57587;55.688;37.600;2023-01-26T05:30:30;100045.09;;;-0.32;60.63
70200;BME280;57587;55.688;37.600;2023-01-26T05:33:01;100049.28;;;-0.42;60.33
70200;BME280;57587;55.688;37.600;2023-01-26T05:35:29;100044.22;;;-0.45;60.54
70200;BME280;57587;55.688;37.600;2023-01-26T05:37:57;100045.47;;;-0.51;60.66
70200;BME280;57587;55.688;37.600;2023-01-26T05:40:25;100049.25;;;-0.55;61.23
70200;BME280;57587;55.688;37.600;2023-01-26T05:42:53;100052.41;;;-0.50;60.87
70200;BME280;57587;55.688;37.600;2023-01-26T05:45:40;100041.25;;;-0.53;60.60
70200;BME280;57587;55.688;37.600;2023-01-26T05:48:09;100052.63;;;-0.53;60.44
70200;BME280;57587;55.688;37.600;2023-01-26T05:50:37;100061.88;;;-0.47;60.29
70200;BME280;57587;55.688;37.600;2023-01-26T05:53:13;100062.41;;;-0.55;60.94
70200;BME280;57587;55.688;37.600;2023-01-26T05:55:42;100063.19;;;-0.40;60.57
70200;BME280;57587;55.688;37.600;2023-01-26T05:58:09;100061.38;;;-0.39;60.13
70200;BME280;57587;55.688;37.600;2023-01-26T06:00:39;100063.63;;;-0.33;60.39
70200;BME280;57587;55.688;37.600;2023-01-26T06:03:13;100061.28;;;-0.25;60.12
70200;BME280;57587;55.688;37.600;2023-01-26T06:05:40;100049.94;;;-0.26;59.89
70200;BME280;57587;55.688;37.600;2023-01-26T06:08:22;100059.41;;;-0.23;60.02
70200;BME280;57587;55.688;37.600;2023-01-26T06:11:00;100047.31;;;-0.13;59.89
70200;BME280;57587;55.688;37.600;2023-01-26T06:13:40;100055.53;;;-0.05;59.20
70200;BME280;57587;55.688;37.600;2023-01-26T06:16:16;100050.50;;;-0.08;59.39
70200;BME280;57587;55.688;37.600;2023-01-26T06:18:46;100055.44;;;-0.03;59.30
70200;BME280;57587;55.688;37.600;2023-01-26T06:21:15;100049.31;;;-0.04;59.13
70200;BME280;57587;55.688;37.600;2023-01-26T06:23:43;100048.06;;;-0.11;59.45
70200;BME280;57587;55.688;37.600;2023-01-26T06:26:11;100042.25;;;-0.16;59.45
70200;BME280;57587;55.688;37.600;2023-01-26T06:28:39;100039.84;;;-0.19;59.61
70200;BME280;57587;55.688;37.600;2023-01-26T06:31:07;100045.75;;;-0.15;60.04
70200;BME280;57587;55.688;37.600;2023-01-26T06:33:35;100047.53;;;-0.16;59.69
70200;BME280;57587;55.688;37.600;2023-01-26T06:36:07;100040.50;;;-0.15;59.31
70200;BME280;57587;55.688;37.600;2023-01-26T06:38:36;100040.78;;;-0.20;59.60
70200;BME280;57587;55.688;37.600;2023-01-26T06:41:05;100033.13;;;-0.23;59.75
70200;BME280;57587;55.688;37.600;2023-01-26T06:43:34;100026.81;;;-0.33;59.76
70200;BME280;57587;55.688;37.600;2023-01-26T06:46:04;100028.06;;;-0.26;60.26
70200;BME280;57587;55.688;37.600;2023-01-26T06:48:33;100024.38;;;-0.36;60.34
70200;BME280;57587;55.688;37.600;2023-01-26T06:53:46;100036.91;;;-0.27;60.39
70200;BME280;57587;55.688;37.600;2023-01-26T06:56:29;100037.63;;;-0.25;60.22
70200;BME280;57587;55.688;37.600;2023-01-26T06:59:16;100029.31;;;-0.19;60.23
70200;BME280;57587;55.688;37.600;2023-01-26T07:02:05;100026.41;;;-0.02;60.17
70200;BME280;57587;55.688;37.600;2023-01-26T07:04:36;100020.91;;;0.02;59.24
70200;BME280;57587;55.688;37.600;2023-01-26T07:07:03;100032.28;;;0.15;59.19
70200;BME280;57587;55.688;37.600;2023-01-26T07:09:30;100028.72;;;0.16;59.07
70200;BME280;57587;55.688;37.600;2023-01-26T07:11:57;100027.44;;;-0.17;59.53
70200;BME280;57587;55.688;37.600;2023-01-26T07:14:24;100027.44;;;-0.17;59.90
70200;BME280;57587;55.688;37.600;2023-01-26T07:16:51;100019.00;;;-0.22;60.47
70200;BME280;57587;55.688;37.600;2023-01-26T07:19:18;100020.78;;;-0.35;60.50
70200;BME280;57587;55.688;37.600;2023-01-26T07:21:45;100031.53;;;-0.26;60.73
70200;BME280;57587;55.688;37.600;2023-01-26T07:24:12;100023.56;;;-0.24;60.08
70200;BME280;57587;55.688;37.600;2023-01-26T07:26:39;100022.59;;;-0.10;60.15
70200;BME280;57587;55.688;37.600;2023-01-26T07:29:06;100034.81;;;-0.09;59.99
70200;BME280;57587;55.688;37.600;2023-01-26T07:31:33;100020.50;;;-0.18;59.83
70200;BME280;57587;55.688;37.600;2023-01-26T07:34:00;100024.16;;;-0.33;60.58
70200;BME280;57587;55.688;37.600;2023-01-26T07:36:27;100022.66;;;-0.37;60.48
70200;BME280;57587;55.688;37.600;2023-01-26T07:38:55;100021.53;;;-0.33;60.61
70200;BME280;57587;55.688;37.600;2023-01-26T07:41:22;100018.09;;;-0.21;60.78
70200;BME280;57587;55.688;37.600;2023-01-26T07:43:49;100011.13;;;-0.22;59.99
70200;BME280;57587;55.688;37.600;2023-01-26T07:46:18;100018.91;;;-0.08;60.17
70200;BME280;57587;55.688;37.600;2023-01-26T07:48:45;100010.19;;;0.05;59.89
70200;BME280;57587;55.688;37.600;2023-01-26T07:51:12;100017.53;;;-0.01;59.78
70200;BME280;57587;55.688;37.600;2023-01-26T07:53:39;100020.72;;;-0.08;60.12
70200;BME280;57587;55.688;37.600;2023-01-26T07:56:13;100026.81;;;-0.08;60.39
70200;BME280;57587;55.688;37.600;2023-01-26T07:58:41;100029.34;;;-0.06;60.37
70200;BME280;57587;55.688;37.600;2023-01-26T08:01:11;100018.72;;;-0.05;60.33
70200;BME280;57587;55.688;37.600;2023-01-26T08:03:39;100011.78;;;-0.06;60.05
70200;BME280;57587;55.688;37.600;2023-01-26T08:06:07;100016.63;;;0.01;60.27
70200;BME280;57587;55.688;37.600;2023-01-26T08:08:38;100014.19;;;0.10;59.90
70200;BME280;57587;55.688;37.600;2023-01-26T08:11:09;100002.81;;;0.10;59.49
70200;BME280;57587;55.688;37.600;2023-01-26T08:13:36;100011.63;;;0.21;59.42
70200;BME280;57587;55.688;37.600;2023-01-26T08:16:06;100007.84;;;0.38;59.35
70200;BME280;57587;55.688;37.600;2023-01-26T08:18:40;100005.50;;;0.47;58.89
70200;BME280;57587;55.688;37.600;2023-01-26T08:21:08;100004.34;;;0.51;58.84
70200;BME280;57587;55.688;37.600;2023-01-26T08:23:35;99997.84;;;0.43;58.91
70200;BME280;57587;55.688;37.600;2023-01-26T08:26:04;99996.06;;;0.31;58.98
70200;BME280;57587;55.688;37.600;2023-01-26T08:28:32;99995.22;;;0.18;59.48
70200;BME280;57587;55.688;37.600;2023-01-26T08:31:14;99997.63;;;0.21;59.79
70200;BME280;57587;55.688;37.600;2023-01-26T08:33:45;99992.38;;;0.21;59.95
70200;BME280;57587;55.688;37.600;2023-01-26T08:36:14;99992.91;;;0.26;59.77
70200;BME280;57587;55.688;37.600;2023-01-26T08:38:42;99997.53;;;0.22;59.57
70200;BME280;57587;55.688;37.600;2023-01-26T08:41:09;99978.34;;;0.33;59.97
70200;BME280;57587;55.688;37.600;2023-01-26T08:43:37;99981.28;;;0.41;59.17
70200;BME280;57587;55.688;37.600;2023-01-26T08:46:05;99982.03;;;0.43;59.12
70200;BME280;57587;55.688;37.600;2023-01-26T08:48:32;99989.72;;;0.47;59.08
70200;BME280;57587;55.688;37.600;2023-01-26T08:51:01;99995.41;;;0.40;59.64
70200;BME280;57587;55.688;37.600;2023-01-26T08:53:30;99996.88;;;0.44;59.65
70200;BME280;57587;55.688;37.600;2023-01-26T08:56:03;99986.13;;;0.48;58.99
70200;BME280;57587;55.688;37.600;2023-01-26T08:58:30;99984.44;;;0.47;59.81
70200;BME280;57587;55.688;37.600;2023-01-26T09:01:03;99984.94;;;0.52;59.50
70200;BME280;57587;55.688;37.600;2023-01-26T09:03:30;99972.16;;;0.34;59.67
70200;BME280;57587;55.688;37.600;2023-01-26T09:05:59;99981.59;;;0.50;59.53
70200;BME280;57587;55.688;37.600;2023-01-26T09:08:27;99987.31;;;0.43;59.84
70200;BME280;57587;55.688;37.600;2023-01-26T09:10:54;99990.22;;;0.52;59.43
70200;BME280;57587;55.688;37.600;2023-01-26T09:13:21;99980.69;;;0.62;59.37
70200;BME280;57587;55.688;37.600;2023-01-26T09:15:49;99986.59;;;0.65;59.16
70200;BME280;57587;55.688;37.600;2023-01-26T09:18:16;99983.84;;;0.67;59.19
70200;BME280;57587;55.688;37.600;2023-01-26T09:20:44;99981.94;;;0.69;58.82
70200;BME280;57587;55.688;37.600;2023-01-26T09:23:11;99973.66;;;0.62;58.61
70200;BME280;57587;55.688;37.600;2023-01-26T09:25:38;99969.94;;;0.65;58.56
70200;BME280;57587;55.688;37.600;2023-01-26T09:28:05;99967.81;;;0.70;58.71
70200;BME280;57587;55.688;37.600;2023-01-26T09:30:33;99976.13;;;0.77;58.66
70200;BME280;57587;55.688;37.600;2023-01-26T09:33:03;99968.78;;;0.69;58.98
70200;BME280;57587;55.688;37.600;2023-01-26T09:35:30;99970.69;;;0.67;59.23
70200;BME280;57587;55.688;37.600;2023-01-26T09:37:57;99967.50;;;0.75;59.24
70200;BME280;57587;55.688;37.600;2023-01-26T09:43:00;99959.97;;;1.05;58.45
70200;BME280;57587;55.688;37.600;2023-01-26T09:45:40;99956.72;;;1.02;58.41
70200;BME280;57587;55.688;37.600;2023-01-26T09:48:32;99950.00;;;0.98;57.99
70200;BME280;57587;55.688;37.600;2023-01-26T09:51:11;99959.56;;;0.99;58.50
70200;BME280;57587;55.688;37.600;2023-01-26T09:53:49;99956.72;;;1.02;58.52
70200;BME280;57587;55.688;37.600;2023-01-26T09:56:21;99954.09;;;1.02;58.42
70200;BME280;57587;55.688;37.600;2023-01-26T09:59:03;99961.72;;;0.94;58.63
70200;BME280;57587;55.688;37.600;2023-01-26T10:01:37;99949.72;;;0.89;58.58
70200;BME280;57587;55.688;37.600;2023-01-26T10:04:25;99960.44;;;0.99;58.37
70200;BME280;57587;55.688;37.600;2023-01-26T10:07:01;99958.19;;;1.06;58.61
70200;BME280;57587;55.688;37.600;2023-01-26T10:09:49;99959.34;;;1.02;58.28
70200;BME280;57587;55.688;37.600;2023-01-26T10:12:27;99964.69;;;1.13;58.66
70200;BME280;57587;55.688;37.600;2023-01-26T10:15:06;99953.09;;;0.91;58.50
70200;BME280;57587;55.688;37.600;2023-01-26T10:17:39;99949.47;;;0.81;58.79
70200;BME280;57587;55.688;37.600;2023-01-26T10:22:45;99960.47;;;0.86;59.29
70200;BME280;57587;55.688;37.600;2023-01-26T10:25:15;99958.88;;;0.97;59.60
70200;BME280;57587;55.688;37.600;2023-01-26T10:27:43;99955.22;;;0.86;58.83
70200;BME280;57587;55.688;37.600;2023-01-26T10:30:16;99955.94;;;0.88;59.31
70200;BME280;57587;55.688;37.600;2023-01-26T10:32:45;99945.69;;;0.97;59.49
70200;BME280;57587;55.688;37.600;2023-01-26T10:35:18;99945.00;;;1.06;59.13
70200;BME280;57587;55.688;37.600;2023-01-26T10:37:46;99941.78;;;1.13;58.59
70200;BME280;57587;55.688;37.600;2023-01-26T10:40:14;99938.25;;;0.90;58.94
70200;BME280;57587;55.688;37.600;2023-01-26T10:42:53;99945.84;;;1.06;59.07
70200;BME280;57587;55.688;37.600;2023-01-26T10:45:32;99942.84;;;1.00;59.19
70200;BME280;57587;55.688;37.600;2023-01-26T10:48:19;99939.22;;;1.01;58.96
70200;BME280;57587;55.688;37.600;2023-01-26T10:50:46;99924.69;;;0.84;59.75
70200;BME280;57587;55.688;37.600;2023-01-26T10:53:18;99915.91;;;0.83;59.82
70200;BME280;57587;55.688;37.600;2023-01-26T10:58:42;99915.69;;;0.86;60.23
70200;BME280;57587;55.688;37.600;2023-01-26T11:01:11;99911.75;;;0.81;60.21
70200;BME280;57587;55.688;37.600;2023-01-26T11:03:42;99906.97;;;0.86;60.75
70200;BME280;57587;55.688;37.600;2023-01-26T11:06:27;99916.72;;;1.08;60.98
70200;BME280;57587;55.688;37.600;2023-01-26T11:09:14;99911.22;;;1.11;60.55
70200;BME280;57587;55.688;37.600;2023-01-26T11:11:55;99907.31;;;1.17;60.44
70200;BME280;57587;55.688;37.600;2023-01-26T11:14:23;99889.69;;;1.17;60.25
70200;BME280;57587;55.688;37.600;2023-01-26T11:16:56;99893.06;;;1.19;60.71
70200;BME280;57587;55.688;37.600;2023-01-26T11:22:54;99896.47;;;1.08;60.25
70200;BME280;57587;55.688;37.600;2023-01-26T11:25:26;99881.06;;;1.15;60.79
70200;BME280;57587;55.688;37.600;2023-01-26T11:31:09;99870.31;;;1.18;59.96
70200;BME280;57587;55.688;37.600;2023-01-26T11:45:24;99877.50;;;1.27;59.32
70200;BME280;57587;55.688;37.600;2023-01-26T11:50:52;99873.50;;;1.10;59.88
70200;BME280;57587;55.688;37.600;2023-01-26T11:56:49;99876.16;;;0.75;60.39
70200;BME280;57587;55.688;37.600;2023-01-26T12:00:07;99877.31;;;0.71;60.76
70200;BME280;57587;55.688;37.600;2023-01-26T12:02:26;99884.44;;;0.58;61.09
70200;BME280;57587;55.688;37.600;2023-01-26T12:04:57;99870.22;;;0.60;61.52
70200;BME280;57587;55.688;37.600;2023-01-26T12:07:35;99877.28;;;0.60;61.06
70200;BME280;57587;55.688;37.600;2023-01-26T12:10:24;99881.38;;;0.64;61.68
70200;BME280;57587;55.688;37.600;2023-01-26T12:13:07;99874.97;;;0.79;60.96
70200;BME280;57587;55.688;37.600;2023-01-26T12:15:38;99869.25;;;0.85;60.58
70200;BME280;57587;55.688;37.600;2023-01-26T12:18:16;99875.69;;;0.81;60.80
70200;BME280;57587;55.688;37.600;2023-01-26T12:20:56;99866.31;;;0.77;60.52
70200;BME280;57587;55.688;37.600;2023-01-26T12:23:50;99865.63;;;0.86;61.09
70200;BME280;57587;55.688;37.600;2023-01-26T12:26:22;99867.56;;;0.84;60.46
70200;BME280;57587;55.688;37.600;2023-01-26T12:32:09;99872.00;;;0.84;60.88
70200;BME280;57587;55.688;37.600;2023-01-26T12:34:38;99865.41;;;0.89;60.68
70200;BME280;57587;55.688;37.600;2023-01-26T12:42:34;99861.28;;;1.09;60.52
70200;BME280;57587;55.688;37.600;2023-01-26T12:45:29;99859.22;;;1.02;60.46
70200;BME280;57587;55.688;37.600;2023-01-26T12:48:21;99858.19;;;1.15;60.41
70200;BME280;57587;55.688;37.600;2023-01-26T12:50:56;99858.28;;;1.14;60.17
70200;BME280;57587;55.688;37.600;2023-01-26T12:56:31;99858.81;;;1.30;59.66
70200;BME280;57587;55.688;37.600;2023-01-26T12:59:05;99856.66;;;1.24;59.69
70200;BME280;57587;55.688;37.600;2023-01-26T13:02:00;99856.47;;;1.03;60.12
70200;BME280;57587;55.688;37.600;2023-01-26T13:04:35;99858.75;;;1.08;60.19
70200;BME280;57587;55.688;37.600;2023-01-26T13:10:19;99868.19;;;0.88;60.54
70200;BME280;57587;55.688;37.600;2023-01-26T13:12:47;99858.69;;;0.85;60.88
70200;BME280;57587;55.688;37.600;2023-01-26T13:15:18;99864.34;;;0.92;60.99
70200;BME280;57587;55.688;37.600;2023-01-26T13:26:17;99875.66;;;0.70;61.29
70200;BME280;57587;55.688;37.600;2023-01-26T13:28:45;99870.00;;;0.63;61.55
70200;BME280;57587;55.688;37.600;2023-01-26T13:31:31;99870.97;;;0.74;62.00
70200;BME280;57587;55.688;37.600;2023-01-26T13:34:07;99873.53;;;0.75;61.60
70200;BME280;57587;55.688;37.600;2023-01-26T13:36:37;99867.56;;;0.84;61.59
70200;BME280;57587;55.688;37.600;2023-01-26T13:39:24;99856.81;;;0.87;61.24
70200;BME280;57587;55.688;37.600;2023-01-26T13:41:54;99860.88;;;0.91;61.23
70200;BME280;57587;55.688;37.600;2023-01-26T13:44:36;99862.81;;;1.01;60.98
70200;BME280;57587;55.688;37.600;2023-01-26T13:47:12;99866.88;;;0.94;60.64
70200;BME280;57587;55.688;37.600;2023-01-26T13:49:42;99866.41;;;1.00;61.06
70200;BME280;57587;55.688;37.600;2023-01-26T13:52:21;99860.69;;;1.06;61.10
70200;BME280;57587;55.688;37.600;2023-01-26T13:54:51;99862.59;;;1.04;61.36
70200;BME280;57587;55.688;37.600;2023-01-26T13:57:26;99865.22;;;1.04;61.32
70200;BME280;57587;55.688;37.600;2023-01-26T13:59:58;99872.06;;;1.06;60.82
70200;BME280;57587;55.688;37.600;2023-01-26T14:02:31;99870.03;;;1.10;61.05
70200;BME280;57587;55.688;37.600;2023-01-26T14:05:01;99875.63;;;1.05;61.02
70200;BME280;57587;55.688;37.600;2023-01-26T14:07:40;99875.31;;;1.10;61.18
70200;BME280;57587;55.688;37.600;2023-01-26T14:10:16;99868.22;;;1.10;61.01
70200;BME280;57587;55.688;37.600;2023-01-26T14:12:47;99875.03;;;1.02;61.28
70200;BME280;57587;55.688;37.600;2023-01-26T14:15:26;99876.50;;;1.06;61.29
70200;BME280;57587;55.688;37.600;2023-01-26T14:18:02;99860.69;;;1.06;60.88
70200;BME280;57587;55.688;37.600;2023-01-26T14:20:34;99868.31;;;0.98;60.98
70200;BME280;57587;55.688;37.600;2023-01-26T14:25:45;99883.91;;;1.01;61.33